Sea Breeze — JD4225 — position and weather

sailwx.info

Track history (hours):
 
Tides and Currents Weather Stations Pressure Air Temp Water Temp Dewpoint Dewpoint Depression Visibility Wind Speed Wind Dir Waves Ship Positions

Sea Breeze

Last reported at 2017-Nov-18 10:31 UTC. Time now 2017-Nov-18 16:04 UTC.
Position N 35°25' E 139°38'.

Length 35 m; draft 3.1 m.

Type: Tug. MMSI: 431009818.

Date/timePositionNaut miles runAvg speedWind from/ knotsBaromVisibWave heightAir tempDewpointWater temp
2017-Nov-18 10:31N 35°25' E 139°38'0 0.0
2017-Nov-18 10:30N 35°25' E 139°38'0 0.2
2017-Nov-18 10:00N 35°25' E 139°38'0 0.0
2017-Nov-18 05:14N 35°25' E 139°38'0 0.4
2017-Nov-18 05:01N 35°25' E 139°38'2 3.3
2017-Nov-18 04:30N 35°24' E 139°40'1 1.8
2017-Nov-18 04:00N 35°23' E 139°41'0 0.3
2017-Nov-18 03:31N 35°23' E 139°41'0 0.3
2017-Nov-18 03:01N 35°23' E 139°41'3 5.1
2017-Nov-18 02:30N 35°25' E 139°38'0 0.8
2017-Nov-18 02:01N 35°25' E 139°39'0 0.3
2017-Nov-18 01:31N 35°25' E 139°39'1 0.3
2017-Nov-17 23:24N 35°24' E 139°38'0 0.2
2017-Nov-17 21:29N 35°25' E 139°38'0 0.0
2017-Nov-17 21:00N 35°25' E 139°38'0 0.0
2017-Nov-17 06:55N 35°25' E 139°38'0 0.0
2017-Nov-16 23:15N 35°24' E 139°38'1 5.8
2017-Nov-16 23:01N 35°24' E 139°40'1 0.2
2017-Nov-16 16:33N 35°25' E 139°38'0 0.7
2017-Nov-16 16:30N 35°25' E 139°38'0 0.2
2017-Nov-16 16:00N 35°25' E 139°38'0 0.0
2017-Nov-16 06:56N 35°25' E 139°38'0 0.1
2017-Nov-16 03:08N 35°24' E 139°38'0 2.0
2017-Nov-16 03:01N 35°25' E 139°38'1 1.0
2017-Nov-16 02:30N 35°25' E 139°39'0 0.1
2017-Nov-16 02:01N 35°25' E 139°39'0 0.2
2017-Nov-16 01:31N 35°25' E 139°39'1 1.2
2017-Nov-16 01:01N 35°24' E 139°39'2 4.2
2017-Nov-16 00:31N 35°23' E 139°41'0 0.7
2017-Nov-16 00:00N 35°22' E 139°41'0 0.8
2017-Nov-15 23:30N 35°22' E 139°41'2 4.3
2017-Nov-15 23:01N 35°24' E 139°40'1 0.7
2017-Nov-15 21:30N 35°25' E 139°38'0 0.0
2017-Nov-15 21:00N 35°25' E 139°38'0 0.0
2017-Nov-15 07:07N 35°25' E 139°38'0 3.6
2017-Nov-15 07:01N 35°25' E 139°39'1 0.2
2017-Nov-15 02:53N 35°24' E 139°38'1 3.2
2017-Nov-15 02:31N 35°24' E 139°39'0 0.9
2017-Nov-15 02:00N 35°25' E 139°39'0 0.3
2017-Nov-15 01:31N 35°24' E 139°39'1 0.4
2017-Nov-14 23:00N 35°24' E 139°38'0 0.2
2017-Nov-14 21:30N 35°25' E 139°38'0 0.0
2017-Nov-14 21:00N 35°25' E 139°38'0 0.0
2017-Nov-14 05:19N 35°25' E 139°38'1 3.2
2017-Nov-14 05:00N 35°24' E 139°40'1 1.8
2017-Nov-14 04:30N 35°25' E 139°38'0 0.1
2017-Nov-14 00:27N 35°24' E 139°38'0 0.9
2017-Nov-14 00:00N 35°25' E 139°38'1 2.1
2017-Nov-13 23:31N 35°24' E 139°40'2 3.3
2017-Nov-13 23:00N 35°23' E 139°40'3 0.1
2017-Nov-12 23:12N 35°24' E 139°38'1 2.9
2017-Nov-12 23:01N 35°25' E 139°39'0 0.3
2017-Nov-12 22:30N 35°25' E 139°38'0 0.2
2017-Nov-12 22:00N 35°25' E 139°38'0 0.0
2017-Nov-12 21:30N 35°25' E 139°38'0 0.0
2017-Nov-12 21:00N 35°25' E 139°38'0 0.0
2017-Nov-12 06:49N 35°25' E 139°38'0 0.3
2017-Nov-12 06:30N 35°25' E 139°38'0 0.1
2017-Nov-12 06:00N 35°25' E 139°39'2 4.2
2017-Nov-12 05:31N 35°23' E 139°41'2 0.4
2017-Nov-12 00:32N 35°25' E 139°38'0 0.0
2017-Nov-12 00:31N 35°25' E 139°38'1 1.2
2017-Nov-12 00:00N 35°25' E 139°39'0 0.6
2017-Nov-11 23:31N 35°24' E 139°39'2 4.1
2017-Nov-11 23:00N 35°23' E 139°41'1 1.3
2017-Nov-11 22:30N 35°24' E 139°42'3 2.6
2017-Nov-11 21:27N 35°25' E 139°38'1 1.4
2017-Nov-11 21:01N 35°24' E 139°39'0 0.0
2017-Nov-11 20:30N 35°24' E 139°39'0 0.0
2017-Nov-11 20:00N 35°24' E 139°39'0 0.0
2017-Nov-11 19:31N 35°24' E 139°39'0 0.0
2017-Nov-11 19:00N 35°24' E 139°39'0 0.0
2017-Nov-11 18:31N 35°24' E 139°39'0 0.0
2017-Nov-11 18:00N 35°24' E 139°39'0 0.0
2017-Nov-11 17:30N 35°24' E 139°39'0 0.0
2017-Nov-11 17:01N 35°24' E 139°39'0 0.0
2017-Nov-11 16:30N 35°24' E 139°39'0 0.0
2017-Nov-11 16:00N 35°24' E 139°39'0 0.0
2017-Nov-11 15:31N 35°24' E 139°39'0 0.0
2017-Nov-11 15:00N 35°24' E 139°39'0 0.0
2017-Nov-11 14:30N 35°24' E 139°39'0 0.0
2017-Nov-11 14:01N 35°24' E 139°39'0 0.0
2017-Nov-11 13:30N 35°24' E 139°39'0 0.0
2017-Nov-11 13:00N 35°24' E 139°39'0 0.0
2017-Nov-11 12:31N 35°24' E 139°39'0 0.0
2017-Nov-11 12:00N 35°24' E 139°39'0 0.0
2017-Nov-11 11:30N 35°24' E 139°39'0 0.0
2017-Nov-11 11:00N 35°24' E 139°39'0 0.0
2017-Nov-11 10:31N 35°24' E 139°39'0 0.0
2017-Nov-11 10:00N 35°24' E 139°39'0 0.0
2017-Nov-11 09:30N 35°24' E 139°39'0 0.0
2017-Nov-11 09:01N 35°24' E 139°39'0 0.0
2017-Nov-11 08:31N 35°24' E 139°39'0 0.0
2017-Nov-11 08:01N 35°24' E 139°39'0 0.0
2017-Nov-11 07:30N 35°24' E 139°39'0 0.0
2017-Nov-11 07:01N 35°24' E 139°39'1 1.0
2017-Nov-11 06:30N 35°25' E 139°39'0 0.1
2017-Nov-11 06:01N 35°25' E 139°38'0 0.9
2017-Nov-11 05:31N 35°24' E 139°39'2 4.2
2017-Nov-11 05:01N 35°23' E 139°40'2 4.0
2017-Nov-11 04:31N 35°24' E 139°39'0 0.3
2017-Nov-11 04:01N 35°24' E 139°39'0 0.6
2017-Nov-11 03:31N 35°24' E 139°39'0 0.0
2017-Nov-11 03:01N 35°24' E 139°39'0 0.0
2017-Nov-11 02:30N 35°24' E 139°39'0 0.0
2017-Nov-11 02:01N 35°24' E 139°39'0 0.0
2017-Nov-11 01:31N 35°24' E 139°39'0 0.0
2017-Nov-11 01:00N 35°24' E 139°39'0 0.1
2017-Nov-11 00:31N 35°24' E 139°39'0 0.0
2017-Nov-11 00:01N 35°24' E 139°39'0 0.0
2017-Nov-10 23:30N 35°24' E 139°39'0 0.0
2017-Nov-10 23:00N 35°24' E 139°39'0 0.0
2017-Nov-10 22:31N 35°24' E 139°39'0 0.0
2017-Nov-10 22:01N 35°24' E 139°39'0 0.8
2017-Nov-10 21:30N 35°24' E 139°39'0 0.4
2017-Nov-10 21:00N 35°25' E 139°38'0 0.1
2017-Nov-10 20:30N 35°25' E 139°38'0 0.5
2017-Nov-10 20:00N 35°24' E 139°38'1 1.8
2017-Nov-10 19:30N 35°24' E 139°39'0 0.5
2017-Nov-10 19:01N 35°24' E 139°39'0 0.0
2017-Nov-10 18:30N 35°24' E 139°39'0 0.0
2017-Nov-10 18:00N 35°24' E 139°39'0 0.0
2017-Nov-10 12:00N 35°24' E 139°39'0 1.0
2017-Nov-10 11:31N 35°25' E 139°38'0 0.1
2017-Nov-10 05:06N 35°24' E 139°38'0 5.0
2017-Nov-10 05:01N 35°25' E 139°39'0 0.2
2017-Nov-10 04:30N 35°25' E 139°38'1 3.0
2017-Nov-10 04:00N 35°24' E 139°40'2 3.6
2017-Nov-10 03:30N 35°22' E 139°40'3 1.8
2017-Nov-10 01:46N 35°24' E 139°38'1 3.0
2017-Nov-10 01:30N 35°25' E 139°39'0 0.4
2017-Nov-10 01:01N 35°24' E 139°39'2 3.5
2017-Nov-10 00:30N 35°23' E 139°41'1 1.1
2017-Nov-10 00:00N 35°23' E 139°41'1 2.9
2017-Nov-09 23:30N 35°24' E 139°39'1 1.5
2017-Nov-09 23:00N 35°24' E 139°39'1 0.4
2017-Nov-09 21:29N 35°25' E 139°38'0 0.0
2017-Nov-09 21:00N 35°25' E 139°38'0 0.0
2017-Nov-09 07:03N 35°25' E 139°38'0 1.4
2017-Nov-09 07:00N 35°25' E 139°38'0 0.0
2017-Nov-08 23:15N 35°24' E 139°38'2 6.3
2017-Nov-08 23:01N 35°24' E 139°40'1 0.8
2017-Nov-08 21:29N 35°25' E 139°38'0 0.0
2017-Nov-08 21:00N 35°25' E 139°38'  
Track history (hours):
 
Tides and Currents Weather Stations Pressure Air Temp Water Temp Dewpoint Dewpoint Depression Visibility Wind Speed Wind Dir Waves Ship Positions

Sea Breeze

Last reported at 2017-Nov-18 10:31 UTC. Time now 2017-Nov-18 16:04 UTC.
Position N 35°25' E 139°38'.

Length 35 m; draft 3.1 m.

Type: Tug. MMSI: 431009818.

Date/timePositionNaut miles runAvg speedWind from/ knotsBaromVisibWave heightAir tempDewpointWater temp
2017-Nov-18 10:31N 35°25' E 139°38'0 0.0
2017-Nov-18 10:30N 35°25' E 139°38'0 0.2
2017-Nov-18 10:00N 35°25' E 139°38'0 0.0
2017-Nov-18 05:14N 35°25' E 139°38'0 0.4
2017-Nov-18 05:01N 35°25' E 139°38'2 3.3
2017-Nov-18 04:30N 35°24' E 139°40'1 1.8
2017-Nov-18 04:00N 35°23' E 139°41'0 0.3
2017-Nov-18 03:31N 35°23' E 139°41'0 0.3
2017-Nov-18 03:01N 35°23' E 139°41'3 5.1
2017-Nov-18 02:30N 35°25' E 139°38'0 0.8
2017-Nov-18 02:01N 35°25' E 139°39'0 0.3
2017-Nov-18 01:31N 35°25' E 139°39'1 0.3
2017-Nov-17 23:24N 35°24' E 139°38'0 0.2
2017-Nov-17 21:29N 35°25' E 139°38'0 0.0
2017-Nov-17 21:00N 35°25' E 139°38'0 0.0
2017-Nov-17 06:55N 35°25' E 139°38'0 0.0
2017-Nov-16 23:15N 35°24' E 139°38'1 5.8
2017-Nov-16 23:01N 35°24' E 139°40'1 0.2
2017-Nov-16 16:33N 35°25' E 139°38'0 0.7
2017-Nov-16 16:30N 35°25' E 139°38'0 0.2
2017-Nov-16 16:00N 35°25' E 139°38'0 0.0
2017-Nov-16 06:56N 35°25' E 139°38'0 0.1
2017-Nov-16 03:08N 35°24' E 139°38'0 2.0
2017-Nov-16 03:01N 35°25' E 139°38'1 1.0
2017-Nov-16 02:30N 35°25' E 139°39'0 0.1
2017-Nov-16 02:01N 35°25' E 139°39'0 0.2
2017-Nov-16 01:31N 35°25' E 139°39'1 1.2
2017-Nov-16 01:01N 35°24' E 139°39'2 4.2
2017-Nov-16 00:31N 35°23' E 139°41'0 0.7
2017-Nov-16 00:00N 35°22' E 139°41'0 0.8
2017-Nov-15 23:30N 35°22' E 139°41'2 4.3
2017-Nov-15 23:01N 35°24' E 139°40'1 0.7
2017-Nov-15 21:30N 35°25' E 139°38'0 0.0
2017-Nov-15 21:00N 35°25' E 139°38'0 0.0
2017-Nov-15 07:07N 35°25' E 139°38'0 3.6
2017-Nov-15 07:01N 35°25' E 139°39'1 0.2
2017-Nov-15 02:53N 35°24' E 139°38'1 3.2
2017-Nov-15 02:31N 35°24' E 139°39'0 0.9
2017-Nov-15 02:00N 35°25' E 139°39'0 0.3
2017-Nov-15 01:31N 35°24' E 139°39'1 0.4
2017-Nov-14 23:00N 35°24' E 139°38'0 0.2
2017-Nov-14 21:30N 35°25' E 139°38'0 0.0
2017-Nov-14 21:00N 35°25' E 139°38'0 0.0
2017-Nov-14 05:19N 35°25' E 139°38'1 3.2
2017-Nov-14 05:00N 35°24' E 139°40'1 1.8
2017-Nov-14 04:30N 35°25' E 139°38'0 0.1
2017-Nov-14 00:27N 35°24' E 139°38'0 0.9
2017-Nov-14 00:00N 35°25' E 139°38'1 2.1
2017-Nov-13 23:31N 35°24' E 139°40'2 3.3
2017-Nov-13 23:00N 35°23' E 139°40'3 0.1
2017-Nov-12 23:12N 35°24' E 139°38'1 2.9
2017-Nov-12 23:01N 35°25' E 139°39'0 0.3
2017-Nov-12 22:30N 35°25' E 139°38'0 0.2
2017-Nov-12 22:00N 35°25' E 139°38'0 0.0
2017-Nov-12 21:30N 35°25' E 139°38'0 0.0
2017-Nov-12 21:00N 35°25' E 139°38'0 0.0
2017-Nov-12 06:49N 35°25' E 139°38'0 0.3
2017-Nov-12 06:30N 35°25' E 139°38'0 0.1
2017-Nov-12 06:00N 35°25' E 139°39'2 4.2
2017-Nov-12 05:31N 35°23' E 139°41'2 0.4
2017-Nov-12 00:32N 35°25' E 139°38'0 0.0
2017-Nov-12 00:31N 35°25' E 139°38'1 1.2
2017-Nov-12 00:00N 35°25' E 139°39'0 0.6
2017-Nov-11 23:31N 35°24' E 139°39'2 4.1
2017-Nov-11 23:00N 35°23' E 139°41'1 1.3
2017-Nov-11 22:30N 35°24' E 139°42'3 2.6
2017-Nov-11 21:27N 35°25' E 139°38'1 1.4
2017-Nov-11 21:01N 35°24' E 139°39'0 0.0
2017-Nov-11 20:30N 35°24' E 139°39'0 0.0
2017-Nov-11 20:00N 35°24' E 139°39'0 0.0
2017-Nov-11 19:31N 35°24' E 139°39'0 0.0
2017-Nov-11 19:00N 35°24' E 139°39'0 0.0
2017-Nov-11 18:31N 35°24' E 139°39'0 0.0
2017-Nov-11 18:00N 35°24' E 139°39'0 0.0
2017-Nov-11 17:30N 35°24' E 139°39'0 0.0
2017-Nov-11 17:01N 35°24' E 139°39'0 0.0
2017-Nov-11 16:30N 35°24' E 139°39'0 0.0
2017-Nov-11 16:00N 35°24' E 139°39'0 0.0
2017-Nov-11 15:31N 35°24' E 139°39'0 0.0
2017-Nov-11 15:00N 35°24' E 139°39'0 0.0
2017-Nov-11 14:30N 35°24' E 139°39'0 0.0
2017-Nov-11 14:01N 35°24' E 139°39'0 0.0
2017-Nov-11 13:30N 35°24' E 139°39'0 0.0
2017-Nov-11 13:00N 35°24' E 139°39'0 0.0
2017-Nov-11 12:31N 35°24' E 139°39'0 0.0
2017-Nov-11 12:00N 35°24' E 139°39'0 0.0
2017-Nov-11 11:30N 35°24' E 139°39'0 0.0
2017-Nov-11 11:00N 35°24' E 139°39'0 0.0
2017-Nov-11 10:31N 35°24' E 139°39'0 0.0
2017-Nov-11 10:00N 35°24' E 139°39'0 0.0
2017-Nov-11 09:30N 35°24' E 139°39'0 0.0
2017-Nov-11 09:01N 35°24' E 139°39'0 0.0
2017-Nov-11 08:31N 35°24' E 139°39'0 0.0
2017-Nov-11 08:01N 35°24' E 139°39'0 0.0
2017-Nov-11 07:30N 35°24' E 139°39'0 0.0
2017-Nov-11 07:01N 35°24' E 139°39'1 1.0
2017-Nov-11 06:30N 35°25' E 139°39'0 0.1
2017-Nov-11 06:01N 35°25' E 139°38'0 0.9
2017-Nov-11 05:31N 35°24' E 139°39'2 4.2
2017-Nov-11 05:01N 35°23' E 139°40'2 4.0
2017-Nov-11 04:31N 35°24' E 139°39'0 0.3
2017-Nov-11 04:01N 35°24' E 139°39'0 0.6
2017-Nov-11 03:31N 35°24' E 139°39'0 0.0
2017-Nov-11 03:01N 35°24' E 139°39'0 0.0
2017-Nov-11 02:30N 35°24' E 139°39'0 0.0
2017-Nov-11 02:01N 35°24' E 139°39'0 0.0
2017-Nov-11 01:31N 35°24' E 139°39'0 0.0
2017-Nov-11 01:00N 35°24' E 139°39'0 0.1
2017-Nov-11 00:31N 35°24' E 139°39'0 0.0
2017-Nov-11 00:01N 35°24' E 139°39'0 0.0
2017-Nov-10 23:30N 35°24' E 139°39'0 0.0
2017-Nov-10 23:00N 35°24' E 139°39'0 0.0
2017-Nov-10 22:31N 35°24' E 139°39'0 0.0
2017-Nov-10 22:01N 35°24' E 139°39'0 0.8
2017-Nov-10 21:30N 35°24' E 139°39'0 0.4
2017-Nov-10 21:00N 35°25' E 139°38'0 0.1
2017-Nov-10 20:30N 35°25' E 139°38'0 0.5
2017-Nov-10 20:00N 35°24' E 139°38'1 1.8
2017-Nov-10 19:30N 35°24' E 139°39'0 0.5
2017-Nov-10 19:01N 35°24' E 139°39'0 0.0
2017-Nov-10 18:30N 35°24' E 139°39'0 0.0
2017-Nov-10 18:00N 35°24' E 139°39'0 0.0
2017-Nov-10 12:00N 35°24' E 139°39'0 1.0
2017-Nov-10 11:31N 35°25' E 139°38'0 0.1
2017-Nov-10 05:06N 35°24' E 139°38'0 5.0
2017-Nov-10 05:01N 35°25' E 139°39'0 0.2
2017-Nov-10 04:30N 35°25' E 139°38'1 3.0
2017-Nov-10 04:00N 35°24' E 139°40'2 3.6
2017-Nov-10 03:30N 35°22' E 139°40'3 1.8
2017-Nov-10 01:46N 35°24' E 139°38'1 3.0
2017-Nov-10 01:30N 35°25' E 139°39'0 0.4
2017-Nov-10 01:01N 35°24' E 139°39'2 3.5
2017-Nov-10 00:30N 35°23' E 139°41'1 1.1
2017-Nov-10 00:00N 35°23' E 139°41'1 2.9
2017-Nov-09 23:30N 35°24' E 139°39'1 1.5
2017-Nov-09 23:00N 35°24' E 139°39'1 0.4
2017-Nov-09 21:29N 35°25' E 139°38'0 0.0
2017-Nov-09 21:00N 35°25' E 139°38'0 0.0
2017-Nov-09 07:03N 35°25' E 139°38'0 1.4
2017-Nov-09 07:00N 35°25' E 139°38'0 0.0
2017-Nov-08 23:15N 35°24' E 139°38'2 6.3
2017-Nov-08 23:01N 35°24' E 139°40'1 0.8
2017-Nov-08 21:29N 35°25' E 139°38'0 0.0
2017-Nov-08 21:00N 35°25' E 139°38'  

Dump ship's entire track history